sensor_id;sensor_type;location;lat;lon;timestamp;P1;durP1;ratioP1;P2;durP2;ratioP2
10295;SDS011;5193;51.032;6.356;2022-07-05T00:02:15;3.50;;;2.70;;
10295;SDS011;5193;51.032;6.356;2022-07-05T00:04:41;8.80;;;3.20;;
10295;SDS011;5193;51.032;6.356;2022-07-05T00:07:06;4.97;;;3.27;;
10295;SDS011;5193;51.032;6.356;2022-07-05T00:09:54;4.03;;;2.90;;
10295;SDS011;5193;51.032;6.356;2022-07-05T00:12:22;3.87;;;3.13;;
10295;SDS011;5193;51.032;6.356;2022-07-05T00:14:49;4.63;;;3.23;;
10295;SDS011;5193;51.032;6.356;2022-07-05T00:17:16;5.27;;;2.87;;
10295;SDS011;5193;51.032;6.356;2022-07-05T00:19:42;3.60;;;2.70;;
10295;SDS011;5193;51.032;6.356;2022-07-05T00:22:07;3.87;;;3.20;;
10295;SDS011;5193;51.032;6.356;2022-07-05T00:24:33;5.23;;;3.30;;
10295;SDS011;5193;51.032;6.356;2022-07-05T00:26:59;5.47;;;3.80;;
10295;SDS011;5193;51.032;6.356;2022-07-05T00:29:25;4.23;;;3.20;;
10295;SDS011;5193;51.032;6.356;2022-07-05T00:31:50;4.63;;;3.10;;
10295;SDS011;5193;51.032;6.356;2022-07-05T00:34:16;4.87;;;3.13;;
10295;SDS011;5193;51.032;6.356;2022-07-05T00:36:42;4.73;;;3.70;;
10295;SDS011;5193;51.032;6.356;2022-07-05T00:39:08;6.87;;;3.73;;
10295;SDS011;5193;51.032;6.356;2022-07-05T00:41:34;4.60;;;3.60;;
10295;SDS011;5193;51.032;6.356;2022-07-05T00:44:01;5.77;;;3.40;;
10295;SDS011;5193;51.032;6.356;2022-07-05T00:46:32;4.57;;;3.70;;
10295;SDS011;5193;51.032;6.356;2022-07-05T00:48:58;4.60;;;3.50;;
10295;SDS011;5193;51.032;6.356;2022-07-05T00:51:25;4.37;;;3.50;;
10295;SDS011;5193;51.032;6.356;2022-07-05T00:53:53;4.17;;;3.40;;
10295;SDS011;5193;51.032;6.356;2022-07-05T00:56:19;6.53;;;3.40;;
10295;SDS011;5193;51.032;6.356;2022-07-05T00:58:47;3.77;;;2.83;;
10295;SDS011;5193;51.032;6.356;2022-07-05T01:01:12;4.70;;;3.30;;
10295;SDS011;5193;51.032;6.356;2022-07-05T01:03:38;5.70;;;3.40;;
10295;SDS011;5193;51.032;6.356;2022-07-05T01:06:06;6.50;;;3.63;;
10295;SDS011;5193;51.032;6.356;2022-07-05T01:08:35;5.50;;;2.90;;
10295;SDS011;5193;51.032;6.356;2022-07-05T01:11:04;4.47;;;3.33;;
10295;SDS011;5193;51.032;6.356;2022-07-05T01:13:30;4.07;;;3.17;;
10295;SDS011;5193;51.032;6.356;2022-07-05T01:15:56;4.07;;;3.07;;
10295;SDS011;5193;51.032;6.356;2022-07-05T01:18:23;2.73;;;2.50;;
10295;SDS011;5193;51.032;6.356;2022-07-05T01:20:49;3.30;;;2.77;;
10295;SDS011;5193;51.032;6.356;2022-07-05T01:23:17;3.93;;;3.07;;
10295;SDS011;5193;51.032;6.356;2022-07-05T01:25:43;3.40;;;3.10;;
10295;SDS011;5193;51.032;6.356;2022-07-05T01:28:11;3.40;;;3.10;;
10295;SDS011;5193;51.032;6.356;2022-07-05T01:30:36;5.67;;;3.33;;
10295;SDS011;5193;51.032;6.356;2022-07-05T01:33:04;3.57;;;3.27;;
10295;SDS011;5193;51.032;6.356;2022-07-05T01:35:31;4.37;;;2.93;;
10295;SDS011;5193;51.032;6.356;2022-07-05T01:37:57;3.10;;;2.80;;
10295;SDS011;5193;51.032;6.356;2022-07-05T01:40:24;3.57;;;2.83;;
10295;SDS011;5193;51.032;6.356;2022-07-05T01:42:50;3.83;;;2.67;;
10295;SDS011;5193;51.032;6.356;2022-07-05T01:45:16;3.03;;;2.83;;
10295;SDS011;5193;51.032;6.356;2022-07-05T01:48:00;3.50;;;2.87;;
10295;SDS011;5193;51.032;6.356;2022-07-05T01:50:29;4.63;;;2.47;;
10295;SDS011;5193;51.032;6.356;2022-07-05T01:52:58;3.57;;;2.87;;
10295;SDS011;5193;51.032;6.356;2022-07-05T01:55:25;3.83;;;2.70;;
10295;SDS011;5193;51.032;6.356;2022-07-05T01:57:51;5.43;;;2.83;;
10295;SDS011;5193;51.032;6.356;2022-07-05T02:00:17;5.27;;;2.80;;
10295;SDS011;5193;51.032;6.356;2022-07-05T02:02:42;4.57;;;2.90;;
10295;SDS011;5193;51.032;6.356;2022-07-05T02:05:09;3.37;;;2.80;;
10295;SDS011;5193;51.032;6.356;2022-07-05T02:07:35;2.70;;;2.50;;
10295;SDS011;5193;51.032;6.356;2022-07-05T02:10:00;6.10;;;2.73;;
10295;SDS011;5193;51.032;6.356;2022-07-05T02:12:26;8.33;;;3.60;;
10295;SDS011;5193;51.032;6.356;2022-07-05T02:14:51;4.43;;;2.87;;
10295;SDS011;5193;51.032;6.356;2022-07-05T02:17:17;3.97;;;2.93;;
10295;SDS011;5193;51.032;6.356;2022-07-05T02:19:43;3.13;;;2.83;;
10295;SDS011;5193;51.032;6.356;2022-07-05T02:22:08;3.57;;;2.67;;
10295;SDS011;5193;51.032;6.356;2022-07-05T02:24:34;4.70;;;2.67;;
10295;SDS011;5193;51.032;6.356;2022-07-05T02:26:59;3.80;;;2.80;;
10295;SDS011;5193;51.032;6.356;2022-07-05T02:29:25;3.80;;;2.63;;
10295;SDS011;5193;51.032;6.356;2022-07-05T02:31:51;4.77;;;3.10;;
10295;SDS011;5193;51.032;6.356;2022-07-05T02:34:16;5.10;;;3.40;;
10295;SDS011;5193;51.032;6.356;2022-07-05T02:36:42;3.33;;;2.73;;
10295;SDS011;5193;51.032;6.356;2022-07-05T02:39:07;4.50;;;3.00;;
10295;SDS011;5193;51.032;6.356;2022-07-05T02:41:33;3.53;;;3.23;;
10295;SDS011;5193;51.032;6.356;2022-07-05T02:43:58;4.10;;;3.57;;
10295;SDS011;5193;51.032;6.356;2022-07-05T02:46:24;5.03;;;3.63;;
10295;SDS011;5193;51.032;6.356;2022-07-05T02:48:50;4.67;;;3.40;;
10295;SDS011;5193;51.032;6.356;2022-07-05T02:51:16;3.87;;;3.10;;
10295;SDS011;5193;51.032;6.356;2022-07-05T02:53:42;3.37;;;3.03;;
10295;SDS011;5193;51.032;6.356;2022-07-05T02:56:07;3.80;;;3.13;;
10295;SDS011;5193;51.032;6.356;2022-07-05T02:58:33;3.50;;;3.20;;
10295;SDS011;5193;51.032;6.356;2022-07-05T03:00:59;4.57;;;3.40;;
10295;SDS011;5193;51.032;6.356;2022-07-05T03:03:24;4.60;;;3.10;;
10295;SDS011;5193;51.032;6.356;2022-07-05T03:05:50;3.40;;;2.87;;
10295;SDS011;5193;51.032;6.356;2022-07-05T03:08:15;6.17;;;4.07;;
10295;SDS011;5193;51.032;6.356;2022-07-05T03:10:41;4.43;;;4.03;;
10295;SDS011;5193;51.032;6.356;2022-07-05T03:13:07;4.90;;;4.07;;
10295;SDS011;5193;51.032;6.356;2022-07-05T03:15:32;5.80;;;4.07;;
10295;SDS011;5193;51.032;6.356;2022-07-05T03:17:58;7.73;;;3.97;;
10295;SDS011;5193;51.032;6.356;2022-07-05T03:20:23;7.50;;;4.50;;
10295;SDS011;5193;51.032;6.356;2022-07-05T03:22:49;5.73;;;4.07;;
10295;SDS011;5193;51.032;6.356;2022-07-05T03:25:15;6.43;;;4.23;;
10295;SDS011;5193;51.032;6.356;2022-07-05T03:27:40;7.43;;;4.87;;
10295;SDS011;5193;51.032;6.356;2022-07-05T03:30:06;5.27;;;4.73;;
10295;SDS011;5193;51.032;6.356;2022-07-05T03:32:32;5.27;;;4.17;;
10295;SDS011;5193;51.032;6.356;2022-07-05T03:34:58;5.10;;;4.53;;
10295;SDS011;5193;51.032;6.356;2022-07-05T03:37:23;7.00;;;4.20;;
10295;SDS011;5193;51.032;6.356;2022-07-05T03:39:49;5.67;;;3.87;;
10295;SDS011;5193;51.032;6.356;2022-07-05T03:42:14;5.23;;;3.97;;
10295;SDS011;5193;51.032;6.356;2022-07-05T03:44:40;4.13;;;3.70;;
10295;SDS011;5193;51.032;6.356;2022-07-05T03:47:06;4.63;;;3.80;;
10295;SDS011;5193;51.032;6.356;2022-07-05T03:49:31;4.30;;;3.50;;
10295;SDS011;5193;51.032;6.356;2022-07-05T03:51:57;7.60;;;3.17;;
10295;SDS011;5193;51.032;6.356;2022-07-05T03:54:22;3.73;;;3.00;;
10295;SDS011;5193;51.032;6.356;2022-07-05T03:56:48;3.93;;;3.17;;
10295;SDS011;5193;51.032;6.356;2022-07-05T03:59:13;6.50;;;3.70;;
10295;SDS011;5193;51.032;6.356;2022-07-05T04:01:39;7.40;;;3.70;;
10295;SDS011;5193;51.032;6.356;2022-07-05T04:04:04;5.37;;;3.30;;
10295;SDS011;5193;51.032;6.356;2022-07-05T04:06:30;4.17;;;3.70;;
10295;SDS011;5193;51.032;6.356;2022-07-05T04:08:55;4.80;;;3.43;;
10295;SDS011;5193;51.032;6.356;2022-07-05T04:11:21;7.23;;;3.50;;
10295;SDS011;5193;51.032;6.356;2022-07-05T04:13:46;5.43;;;3.60;;
10295;SDS011;5193;51.032;6.356;2022-07-05T04:16:12;7.07;;;3.33;;
10295;SDS011;5193;51.032;6.356;2022-07-05T04:18:38;12.20;;;3.93;;
10295;SDS011;5193;51.032;6.356;2022-07-05T04:21:04;5.73;;;3.63;;
10295;SDS011;5193;51.032;6.356;2022-07-05T04:23:30;8.30;;;4.17;;
10295;SDS011;5193;51.032;6.356;2022-07-05T04:25:56;9.17;;;3.90;;
10295;SDS011;5193;51.032;6.356;2022-07-05T04:28:22;10.63;;;4.20;;
10295;SDS011;5193;51.032;6.356;2022-07-05T04:30:47;4.77;;;4.33;;
10295;SDS011;5193;51.032;6.356;2022-07-05T04:33:13;4.60;;;4.10;;
10295;SDS011;5193;51.032;6.356;2022-07-05T04:35:38;5.83;;;4.50;;
10295;SDS011;5193;51.032;6.356;2022-07-05T04:38:04;7.57;;;4.90;;
10295;SDS011;5193;51.032;6.356;2022-07-05T04:40:30;4.63;;;4.10;;
10295;SDS011;5193;51.032;6.356;2022-07-05T04:42:56;4.90;;;4.40;;
10295;SDS011;5193;51.032;6.356;2022-07-05T04:45:21;9.10;;;4.67;;
10295;SDS011;5193;51.032;6.356;2022-07-05T04:47:47;5.70;;;4.40;;
10295;SDS011;5193;51.032;6.356;2022-07-05T04:50:12;7.17;;;5.20;;
10295;SDS011;5193;51.032;6.356;2022-07-05T04:52:38;9.17;;;5.37;;
10295;SDS011;5193;51.032;6.356;2022-07-05T04:55:04;7.27;;;5.73;;
10295;SDS011;5193;51.032;6.356;2022-07-05T04:57:37;7.70;;;5.60;;
10295;SDS011;5193;51.032;6.356;2022-07-05T05:00:09;7.40;;;5.87;;
10295;SDS011;5193;51.032;6.356;2022-07-05T05:02:36;8.43;;;5.50;;
10295;SDS011;5193;51.032;6.356;2022-07-05T05:05:02;7.43;;;5.83;;
10295;SDS011;5193;51.032;6.356;2022-07-05T05:07:29;7.50;;;6.17;;
10295;SDS011;5193;51.032;6.356;2022-07-05T05:09:55;9.40;;;5.87;;
10295;SDS011;5193;51.032;6.356;2022-07-05T05:12:20;6.97;;;5.90;;
10295;SDS011;5193;51.032;6.356;2022-07-05T05:14:47;9.90;;;5.97;;
10295;SDS011;5193;51.032;6.356;2022-07-05T05:17:13;8.77;;;6.23;;
10295;SDS011;5193;51.032;6.356;2022-07-05T05:19:39;9.70;;;6.37;;
10295;SDS011;5193;51.032;6.356;2022-07-05T05:22:04;8.00;;;6.43;;
10295;SDS011;5193;51.032;6.356;2022-07-05T05:24:30;8.20;;;5.97;;
10295;SDS011;5193;51.032;6.356;2022-07-05T05:26:56;10.70;;;6.53;;
10295;SDS011;5193;51.032;6.356;2022-07-05T05:29:22;9.43;;;7.10;;
10295;SDS011;5193;51.032;6.356;2022-07-05T05:31:47;7.67;;;6.67;;
10295;SDS011;5193;51.032;6.356;2022-07-05T05:34:13;10.83;;;7.07;;
10295;SDS011;5193;51.032;6.356;2022-07-05T05:36:39;9.37;;;7.63;;
10295;SDS011;5193;51.032;6.356;2022-07-05T05:39:04;8.27;;;7.20;;
10295;SDS011;5193;51.032;6.356;2022-07-05T05:41:30;9.60;;;7.37;;
10295;SDS011;5193;51.032;6.356;2022-07-05T05:43:56;10.50;;;7.53;;
10295;SDS011;5193;51.032;6.356;2022-07-05T05:46:21;10.23;;;7.83;;
10295;SDS011;5193;51.032;6.356;2022-07-05T05:48:47;12.23;;;7.53;;
10295;SDS011;5193;51.032;6.356;2022-07-05T05:51:12;9.37;;;7.50;;
10295;SDS011;5193;51.032;6.356;2022-07-05T05:53:38;9.27;;;7.63;;
10295;SDS011;5193;51.032;6.356;2022-07-05T05:56:04;9.83;;;7.80;;
10295;SDS011;5193;51.032;6.356;2022-07-05T05:58:29;9.03;;;7.60;;
10295;SDS011;5193;51.032;6.356;2022-07-05T06:00:55;10.33;;;7.50;;
10295;SDS011;5193;51.032;6.356;2022-07-05T06:03:21;7.97;;;6.70;;
10295;SDS011;5193;51.032;6.356;2022-07-05T06:05:48;12.90;;;7.23;;
10295;SDS011;5193;51.032;6.356;2022-07-05T06:08:15;10.03;;;7.23;;
10295;SDS011;5193;51.032;6.356;2022-07-05T06:10:40;9.17;;;7.47;;
10295;SDS011;5193;51.032;6.356;2022-07-05T06:13:07;7.93;;;6.77;;
10295;SDS011;5193;51.032;6.356;2022-07-05T06:15:34;10.23;;;6.73;;
10295;SDS011;5193;51.032;6.356;2022-07-05T06:18:01;9.13;;;6.43;;
10295;SDS011;5193;51.032;6.356;2022-07-05T06:20:28;10.90;;;6.97;;
10295;SDS011;5193;51.032;6.356;2022-07-05T06:22:55;8.13;;;6.80;;
10295;SDS011;5193;51.032;6.356;2022-07-05T06:25:22;6.83;;;6.13;;
10295;SDS011;5193;51.032;6.356;2022-07-05T06:27:48;7.53;;;6.53;;
10295;SDS011;5193;51.032;6.356;2022-07-05T06:30:16;9.57;;;6.87;;
10295;SDS011;5193;51.032;6.356;2022-07-05T06:32:44;10.67;;;6.07;;
10295;SDS011;5193;51.032;6.356;2022-07-05T06:35:10;10.50;;;5.33;;
10295;SDS011;5193;51.032;6.356;2022-07-05T06:37:52;8.33;;;5.63;;
10295;SDS011;5193;51.032;6.356;2022-07-05T06:40:22;8.10;;;5.63;;
10295;SDS011;5193;51.032;6.356;2022-07-05T06:42:59;7.67;;;5.33;;
10295;SDS011;5193;51.032;6.356;2022-07-05T06:45:27;7.37;;;5.10;;
10295;SDS011;5193;51.032;6.356;2022-07-05T06:47:57;10.97;;;5.43;;
10295;SDS011;5193;51.032;6.356;2022-07-05T06:50:25;8.87;;;4.27;;
10295;SDS011;5193;51.032;6.356;2022-07-05T06:52:51;7.23;;;4.10;;
10295;SDS011;5193;51.032;6.356;2022-07-05T06:55:17;7.53;;;3.20;;
10295;SDS011;5193;51.032;6.356;2022-07-05T06:57:43;4.30;;;3.50;;
10295;SDS011;5193;51.032;6.356;2022-07-05T07:00:10;5.20;;;3.80;;
10295;SDS011;5193;51.032;6.356;2022-07-05T07:02:36;6.73;;;4.40;;
10295;SDS011;5193;51.032;6.356;2022-07-05T07:05:02;5.63;;;4.30;;
10295;SDS011;5193;51.032;6.356;2022-07-05T07:07:30;7.33;;;4.37;;
10295;SDS011;5193;51.032;6.356;2022-07-05T07:10:15;6.63;;;3.73;;
10295;SDS011;5193;51.032;6.356;2022-07-05T07:12:40;5.87;;;3.60;;
10295;SDS011;5193;51.032;6.356;2022-07-05T07:15:06;6.10;;;3.70;;
10295;SDS011;5193;51.032;6.356;2022-07-05T07:17:32;9.20;;;3.87;;
10295;SDS011;5193;51.032;6.356;2022-07-05T07:19:58;4.13;;;3.57;;
10295;SDS011;5193;51.032;6.356;2022-07-05T07:22:23;4.70;;;3.77;;
10295;SDS011;5193;51.032;6.356;2022-07-05T07:24:49;7.53;;;4.33;;
10295;SDS011;5193;51.032;6.356;2022-07-05T07:27:15;6.20;;;3.70;;
10295;SDS011;5193;51.032;6.356;2022-07-05T07:29:40;5.20;;;4.20;;
10295;SDS011;5193;51.032;6.356;2022-07-05T07:32:07;9.33;;;3.67;;
10295;SDS011;5193;51.032;6.356;2022-07-05T07:34:34;5.30;;;4.10;;
10295;SDS011;5193;51.032;6.356;2022-07-05T07:37:01;6.70;;;3.83;;
10295;SDS011;5193;51.032;6.356;2022-07-05T07:39:28;4.57;;;3.53;;
10295;SDS011;5193;51.032;6.356;2022-07-05T07:41:54;5.77;;;3.60;;
10295;SDS011;5193;51.032;6.356;2022-07-05T07:44:20;8.43;;;3.50;;
10295;SDS011;5193;51.032;6.356;2022-07-05T07:46:45;6.70;;;3.97;;
10295;SDS011;5193;51.032;6.356;2022-07-05T07:49:12;7.20;;;3.83;;
10295;SDS011;5193;51.032;6.356;2022-07-05T07:51:38;7.87;;;3.70;;
10295;SDS011;5193;51.032;6.356;2022-07-05T07:54:04;5.03;;;3.40;;
10295;SDS011;5193;51.032;6.356;2022-07-05T07:56:30;8.57;;;3.20;;
10295;SDS011;5193;51.032;6.356;2022-07-05T07:58:55;5.13;;;3.20;;
10295;SDS011;5193;51.032;6.356;2022-07-05T08:01:21;4.60;;;2.80;;
10295;SDS011;5193;51.032;6.356;2022-07-05T08:03:47;3.03;;;2.37;;
10295;SDS011;5193;51.032;6.356;2022-07-05T08:06:13;4.77;;;2.60;;
10295;SDS011;5193;51.032;6.356;2022-07-05T08:08:41;4.37;;;2.20;;
10295;SDS011;5193;51.032;6.356;2022-07-05T08:11:09;3.83;;;2.37;;
10295;SDS011;5193;51.032;6.356;2022-07-05T08:13:36;3.23;;;2.00;;
10295;SDS011;5193;51.032;6.356;2022-07-05T08:16:02;8.93;;;2.30;;
10295;SDS011;5193;51.032;6.356;2022-07-05T08:18:27;3.43;;;2.47;;
10295;SDS011;5193;51.032;6.356;2022-07-05T08:21:12;3.27;;;2.20;;
10295;SDS011;5193;51.032;6.356;2022-07-05T08:23:56;3.23;;;1.90;;
10295;SDS011;5193;51.032;6.356;2022-07-05T08:26:22;2.73;;;2.20;;
10295;SDS011;5193;51.032;6.356;2022-07-05T08:28:48;2.60;;;1.90;;
10295;SDS011;5193;51.032;6.356;2022-07-05T08:31:13;2.70;;;1.50;;
10295;SDS011;5193;51.032;6.356;2022-07-05T08:33:39;1.83;;;1.20;;
10295;SDS011;5193;51.032;6.356;2022-07-05T08:36:04;5.87;;;1.80;;
10295;SDS011;5193;51.032;6.356;2022-07-05T08:38:30;4.40;;;1.50;;
10295;SDS011;5193;51.032;6.356;2022-07-05T08:40:56;6.63;;;1.70;;
10295;SDS011;5193;51.032;6.356;2022-07-05T08:43:23;2.07;;;1.50;;
10295;SDS011;5193;51.032;6.356;2022-07-05T08:45:55;2.27;;;1.70;;
10295;SDS011;5193;51.032;6.356;2022-07-05T08:48:23;2.60;;;1.60;;
10295;SDS011;5193;51.032;6.356;2022-07-05T08:50:51;2.60;;;1.67;;
10295;SDS011;5193;51.032;6.356;2022-07-05T08:53:19;4.00;;;1.83;;
10295;SDS011;5193;51.032;6.356;2022-07-05T08:55:45;2.37;;;1.60;;
10295;SDS011;5193;51.032;6.356;2022-07-05T08:58:11;3.03;;;1.20;;
10295;SDS011;5193;51.032;6.356;2022-07-05T09:00:42;2.20;;;1.70;;
10295;SDS011;5193;51.032;6.356;2022-07-05T09:03:08;2.40;;;1.17;;
10295;SDS011;5193;51.032;6.356;2022-07-05T09:05:39;2.33;;;1.00;;
10295;SDS011;5193;51.032;6.356;2022-07-05T09:08:14;3.17;;;1.20;;
10295;SDS011;5193;51.032;6.356;2022-07-05T09:10:42;1.43;;;1.10;;
10295;SDS011;5193;51.032;6.356;2022-07-05T09:13:08;2.17;;;1.27;;
10295;SDS011;5193;51.032;6.356;2022-07-05T09:15:37;2.83;;;1.60;;
10295;SDS011;5193;51.032;6.356;2022-07-05T09:18:03;2.13;;;1.50;;
10295;SDS011;5193;51.032;6.356;2022-07-05T09:20:29;2.63;;;1.33;;
10295;SDS011;5193;51.032;6.356;2022-07-05T09:22:55;2.80;;;1.53;;
10295;SDS011;5193;51.032;6.356;2022-07-05T09:28:00;3.17;;;1.70;;
10295;SDS011;5193;51.032;6.356;2022-07-05T09:35:31;2.07;;;1.23;;
10295;SDS011;5193;51.032;6.356;2022-07-05T09:37:59;2.00;;;1.30;;
10295;SDS011;5193;51.032;6.356;2022-07-05T09:40:28;2.17;;;1.20;;
10295;SDS011;5193;51.032;6.356;2022-07-05T09:43:15;2.80;;;1.13;;
10295;SDS011;5193;51.032;6.356;2022-07-05T09:45:59;3.53;;;1.70;;
10295;SDS011;5193;51.032;6.356;2022-07-05T09:48:27;2.83;;;1.43;;
10295;SDS011;5193;51.032;6.356;2022-07-05T09:51:03;3.20;;;1.50;;
10295;SDS011;5193;51.032;6.356;2022-07-05T09:53:45;3.47;;;1.40;;
10295;SDS011;5193;51.032;6.356;2022-07-05T09:56:12;4.07;;;1.80;;
10295;SDS011;5193;51.032;6.356;2022-07-05T09:58:39;3.50;;;1.60;;
10295;SDS011;5193;51.032;6.356;2022-07-05T10:03:54;3.60;;;1.10;;
10295;SDS011;5193;51.032;6.356;2022-07-05T10:06:24;2.47;;;1.17;;
10295;SDS011;5193;51.032;6.356;2022-07-05T10:08:52;4.70;;;1.10;;
10295;SDS011;5193;51.032;6.356;2022-07-05T10:11:18;2.83;;;0.97;;
10295;SDS011;5193;51.032;6.356;2022-07-05T10:13:47;4.70;;;1.00;;
10295;SDS011;5193;51.032;6.356;2022-07-05T10:16:14;2.90;;;1.10;;
10295;SDS011;5193;51.032;6.356;2022-07-05T10:18:41;3.67;;;0.97;;
10295;SDS011;5193;51.032;6.356;2022-07-05T10:21:25;1.57;;;1.17;;
10295;SDS011;5193;51.032;6.356;2022-07-05T10:23:52;1.07;;;0.80;;
10295;SDS011;5193;51.032;6.356;2022-07-05T10:26:22;3.63;;;1.27;;
10295;SDS011;5193;51.032;6.356;2022-07-05T10:28:49;2.10;;;0.82;;
10295;SDS011;5193;51.032;6.356;2022-07-05T10:31:17;2.50;;;1.05;;
10295;SDS011;5193;51.032;6.356;2022-07-05T10:33:44;5.45;;;1.30;;
10295;SDS011;5193;51.032;6.356;2022-07-05T10:36:10;4.70;;;0.97;;
10295;SDS011;5193;51.032;6.356;2022-07-05T10:38:37;1.65;;;1.20;;
10295;SDS011;5193;51.032;6.356;2022-07-05T10:41:07;1.65;;;1.30;;
10295;SDS011;5193;51.032;6.356;2022-07-05T10:43:35;3.00;;;1.20;;
10295;SDS011;5193;51.032;6.356;2022-07-05T10:46:01;1.48;;;1.00;;
10295;SDS011;5193;51.032;6.356;2022-07-05T10:48:31;2.17;;;1.20;;
10295;SDS011;5193;51.032;6.356;2022-07-05T10:51:02;3.67;;;1.33;;
10295;SDS011;5193;51.032;6.356;2022-07-05T10:58:31;2.00;;;1.20;;
10295;SDS011;5193;51.032;6.356;2022-07-05T11:06:26;2.00;;;1.10;;
10295;SDS011;5193;51.032;6.356;2022-07-05T11:11:39;1.13;;;1.00;;
10295;SDS011;5193;51.032;6.356;2022-07-05T11:17:32;1.30;;;1.00;;
10295;SDS011;5193;51.032;6.356;2022-07-05T11:19:33;5.05;;;1.20;;
10295;SDS011;5193;51.032;6.356;2022-07-05T11:22:00;5.32;;;1.08;;
10295;SDS011;5193;51.032;6.356;2022-07-05T11:24:27;1.55;;;0.95;;
10295;SDS011;5193;51.032;6.356;2022-07-05T11:27:03;1.55;;;0.88;;
10295;SDS011;5193;51.032;6.356;2022-07-05T11:32:16;3.70;;;1.17;;
10295;SDS011;5193;51.032;6.356;2022-07-05T11:34:42;2.53;;;1.10;;
10295;SDS011;5193;51.032;6.356;2022-07-05T11:37:24;2.47;;;1.15;;
10295;SDS011;5193;51.032;6.356;2022-07-05T11:42:31;1.95;;;1.20;;
10295;SDS011;5193;51.032;6.356;2022-07-05T11:44:59;2.05;;;1.15;;
10295;SDS011;5193;51.032;6.356;2022-07-05T11:47:26;3.80;;;1.20;;
10295;SDS011;5193;51.032;6.356;2022-07-05T11:49:52;1.98;;;1.40;;
10295;SDS011;5193;51.032;6.356;2022-07-05T11:52:26;1.90;;;1.13;;
10295;SDS011;5193;51.032;6.356;2022-07-05T11:54:53;1.38;;;1.20;;
10295;SDS011;5193;51.032;6.356;2022-07-05T11:57:19;2.17;;;1.25;;
10295;SDS011;5193;51.032;6.356;2022-07-05T11:59:45;2.47;;;1.30;;
10295;SDS011;5193;51.032;6.356;2022-07-05T12:02:11;3.20;;;1.25;;
10295;SDS011;5193;51.032;6.356;2022-07-05T12:04:37;1.52;;;1.00;;
10295;SDS011;5193;51.032;6.356;2022-07-05T12:07:03;0.95;;;0.90;;
10295;SDS011;5193;51.032;6.356;2022-07-05T12:09:30;2.33;;;1.00;;
10295;SDS011;5193;51.032;6.356;2022-07-05T12:12:23;1.27;;;1.17;;
10295;SDS011;5193;51.032;6.356;2022-07-05T12:15:10;2.22;;;1.25;;
10295;SDS011;5193;51.032;6.356;2022-07-05T12:17:38;2.55;;;1.33;;
10295;SDS011;5193;51.032;6.356;2022-07-05T12:20:06;3.28;;;1.30;;
10295;SDS011;5193;51.032;6.356;2022-07-05T12:22:34;1.52;;;1.00;;
10295;SDS011;5193;51.032;6.356;2022-07-05T12:25:02;2.35;;;1.42;;
10295;SDS011;5193;51.032;6.356;2022-07-05T12:27:30;3.53;;;1.23;;
10295;SDS011;5193;51.032;6.356;2022-07-05T12:29:57;1.60;;;1.10;;
10295;SDS011;5193;51.032;6.356;2022-07-05T12:32:23;2.28;;;1.65;;
10295;SDS011;5193;51.032;6.356;2022-07-05T12:34:49;2.53;;;1.60;;
10295;SDS011;5193;51.032;6.356;2022-07-05T12:37:25;2.63;;;1.40;;
10295;SDS011;5193;51.032;6.356;2022-07-05T12:40:02;2.00;;;1.27;;
10295;SDS011;5193;51.032;6.356;2022-07-05T12:42:36;1.85;;;1.35;;
10295;SDS011;5193;51.032;6.356;2022-07-05T12:45:20;2.58;;;1.30;;
10295;SDS011;5193;51.032;6.356;2022-07-05T12:47:48;3.00;;;1.10;;
10295;SDS011;5193;51.032;6.356;2022-07-05T12:50:15;3.00;;;1.40;;
10295;SDS011;5193;51.032;6.356;2022-07-05T12:53:01;2.70;;;1.27;;
10295;SDS011;5193;51.032;6.356;2022-07-05T12:55:49;2.80;;;1.20;;
10295;SDS011;5193;51.032;6.356;2022-07-05T12:58:59;2.15;;;1.20;;
10295;SDS011;5193;51.032;6.356;2022-07-05T13:01:27;3.33;;;1.38;;
10295;SDS011;5193;51.032;6.356;2022-07-05T13:14:47;1.55;;;1.08;;
10295;SDS011;5193;51.032;6.356;2022-07-05T13:17:16;2.65;;;1.30;;
10295;SDS011;5193;51.032;6.356;2022-07-05T13:19:47;2.10;;;1.10;;
10295;SDS011;5193;51.032;6.356;2022-07-05T13:22:14;2.55;;;1.20;;
10295;SDS011;5193;51.032;6.356;2022-07-05T13:24:40;1.95;;;1.02;;
10295;SDS011;5193;51.032;6.356;2022-07-05T13:27:07;4.47;;;1.42;;
10295;SDS011;5193;51.032;6.356;2022-07-05T13:29:34;1.60;;;1.00;;
10295;SDS011;5193;51.032;6.356;2022-07-05T13:32:01;3.13;;;1.70;;
10295;SDS011;5193;51.032;6.356;2022-07-05T13:34:27;1.83;;;0.90;;
10295;SDS011;5193;51.032;6.356;2022-07-05T13:36:53;1.83;;;1.10;;
10295;SDS011;5193;51.032;6.356;2022-07-05T13:39:20;4.60;;;1.02;;
10295;SDS011;5193;51.032;6.356;2022-07-05T13:41:46;0.90;;;0.82;;
10295;SDS011;5193;51.032;6.356;2022-07-05T13:44:12;3.13;;;1.00;;
10295;SDS011;5193;51.032;6.356;2022-07-05T13:46:38;2.65;;;1.40;;
10295;SDS011;5193;51.032;6.356;2022-07-05T13:49:03;3.50;;;1.38;;
10295;SDS011;5193;51.032;6.356;2022-07-05T13:51:29;1.77;;;1.15;;
10295;SDS011;5193;51.032;6.356;2022-07-05T13:53:55;2.20;;;1.30;;
10295;SDS011;5193;51.032;6.356;2022-07-05T13:56:20;4.25;;;1.33;;
10295;SDS011;5193;51.032;6.356;2022-07-05T13:58:46;2.08;;;1.15;;
10295;SDS011;5193;51.032;6.356;2022-07-05T14:01:12;1.88;;;1.33;;
10295;SDS011;5193;51.032;6.356;2022-07-05T14:03:37;2.08;;;1.15;;
10295;SDS011;5193;51.032;6.356;2022-07-05T14:06:03;1.90;;;1.20;;
10295;SDS011;5193;51.032;6.356;2022-07-05T14:08:32;3.00;;;1.23;;
10295;SDS011;5193;51.032;6.356;2022-07-05T14:10:57;2.55;;;1.10;;
10295;SDS011;5193;51.032;6.356;2022-07-05T14:13:24;1.70;;;1.08;;
10295;SDS011;5193;51.032;6.356;2022-07-05T14:15:51;4.30;;;1.60;;
10295;SDS011;5193;51.032;6.356;2022-07-05T14:18:18;5.75;;;1.50;;
10295;SDS011;5193;51.032;6.356;2022-07-05T14:20:45;5.43;;;1.38;;
10295;SDS011;5193;51.032;6.356;2022-07-05T14:23:12;5.18;;;1.38;;
10295;SDS011;5193;51.032;6.356;2022-07-05T14:25:42;1.98;;;1.30;;
10295;SDS011;5193;51.032;6.356;2022-07-05T14:28:08;1.42;;;1.02;;
10295;SDS011;5193;51.032;6.356;2022-07-05T14:30:37;1.30;;;1.17;;
10295;SDS011;5193;51.032;6.356;2022-07-05T14:33:05;5.88;;;1.30;;
10295;SDS011;5193;51.032;6.356;2022-07-05T14:35:31;1.58;;;1.20;;
10295;SDS011;5193;51.032;6.356;2022-07-05T14:37:58;2.33;;;1.13;;
10295;SDS011;5193;51.032;6.356;2022-07-05T14:40:24;2.38;;;1.35;;
10295;SDS011;5193;51.032;6.356;2022-07-05T14:42:53;3.13;;;1.40;;
10295;SDS011;5193;51.032;6.356;2022-07-05T14:45:20;4.50;;;1.20;;
10295;SDS011;5193;51.032;6.356;2022-07-05T14:47:46;5.38;;;1.58;;
10295;SDS011;5193;51.032;6.356;2022-07-05T14:50:12;4.18;;;1.60;;
10295;SDS011;5193;51.032;6.356;2022-07-05T14:52:39;2.92;;;1.38;;
10295;SDS011;5193;51.032;6.356;2022-07-05T14:55:05;3.08;;;1.50;;
10295;SDS011;5193;51.032;6.356;2022-07-05T14:57:31;3.05;;;1.60;;
10295;SDS011;5193;51.032;6.356;2022-07-05T14:59:57;4.18;;;1.73;;
10295;SDS011;5193;51.032;6.356;2022-07-05T15:02:22;1.83;;;1.27;;
10295;SDS011;5193;51.032;6.356;2022-07-05T15:04:48;2.75;;;1.52;;
10295;SDS011;5193;51.032;6.356;2022-07-05T15:07:14;3.30;;;1.40;;
10295;SDS011;5193;51.032;6.356;2022-07-05T15:09:40;1.80;;;1.20;;
10295;SDS011;5193;51.032;6.356;2022-07-05T15:12:05;6.65;;;1.20;;
10295;SDS011;5193;51.032;6.356;2022-07-05T15:14:31;2.72;;;1.23;;
10295;SDS011;5193;51.032;6.356;2022-07-05T15:16:57;2.72;;;1.40;;
10295;SDS011;5193;51.032;6.356;2022-07-05T15:19:23;6.45;;;2.28;;
10295;SDS011;5193;51.032;6.356;2022-07-05T15:21:48;8.30;;;1.60;;
10295;SDS011;5193;51.032;6.356;2022-07-05T15:24:14;2.05;;;1.40;;
10295;SDS011;5193;51.032;6.356;2022-07-05T15:26:40;3.88;;;1.45;;
10295;SDS011;5193;51.032;6.356;2022-07-05T15:29:07;3.03;;;1.70;;
10295;SDS011;5193;51.032;6.356;2022-07-05T15:31:33;2.83;;;1.70;;
10295;SDS011;5193;51.032;6.356;2022-07-05T15:34:03;3.20;;;1.67;;
10295;SDS011;5193;51.032;6.356;2022-07-05T15:36:29;3.17;;;1.65;;
10295;SDS011;5193;51.032;6.356;2022-07-05T15:38:59;4.05;;;2.00;;
10295;SDS011;5193;51.032;6.356;2022-07-05T15:41:26;4.20;;;1.90;;
10295;SDS011;5193;51.032;6.356;2022-07-05T15:43:52;3.08;;;2.20;;
10295;SDS011;5193;51.032;6.356;2022-07-05T15:46:18;3.45;;;1.80;;